createdAt,value
2022-10-19T00:01:56.999Z,100447.19
2022-10-19T00:04:27.160Z,100446.56
2022-10-19T00:06:57.197Z,100440.44
2022-10-19T00:09:27.637Z,100435.28
2022-10-19T00:11:57.649Z,100428.41
2022-10-19T00:14:30.330Z,100427.47
2022-10-19T00:17:00.354Z,100427.56
2022-10-19T00:19:31.592Z,100421.44
2022-10-19T00:22:01.586Z,100409.47
2022-10-19T00:24:31.595Z,100414.13
2022-10-19T00:27:01.716Z,100411.72
2022-10-19T00:29:34.294Z,100404.84
2022-10-19T00:32:04.289Z,100394.19
2022-10-19T00:34:34.349Z,100396.22
2022-10-19T00:37:04.491Z,100391.16
2022-10-19T00:39:34.444Z,100386.94
2022-10-19T00:42:04.547Z,100356.34
2022-10-19T00:45:06.327Z,100392.56
2022-10-19T00:47:37.346Z,100394.81
2022-10-19T00:50:08.337Z,100393.34
2022-10-19T00:52:38.507Z,100405.81
2022-10-19T00:55:11.582Z,100393.78
2022-10-19T00:57:43.334Z,100390.44
2022-10-19T01:00:16.819Z,100382.63
2022-10-19T01:02:46.850Z,100389.81
2022-10-19T01:05:17.995Z,100368.53
2022-10-19T01:07:48.407Z,100382.06
2022-10-19T01:10:18.851Z,100385.44
2022-10-19T01:13:06.370Z,100379.09
2022-10-19T01:15:46.327Z,100385.00
2022-10-19T01:18:24.126Z,100361.25
2022-10-19T01:21:20.473Z,100364.50
2022-10-19T01:24:29.069Z,100365.22
2022-10-19T01:27:30.635Z,100363.28
2022-10-19T01:30:09.129Z,100348.41
2022-10-19T01:32:52.979Z,100355.50
2022-10-19T01:35:30.729Z,100351.47
2022-10-19T01:38:10.660Z,100359.88
2022-10-19T01:40:49.633Z,100353.41
2022-10-19T01:43:27.201Z,100349.72
2022-10-19T01:46:07.455Z,100337.69
2022-10-19T01:48:41.762Z,100334.72
2022-10-19T01:51:16.029Z,100324.50
2022-10-19T01:53:50.361Z,100323.22
2022-10-19T01:56:23.405Z,100323.47
2022-10-19T01:58:55.671Z,100320.34
2022-10-19T02:01:33.469Z,100319.66
2022-10-19T02:04:04.897Z,100318.84
2022-10-19T02:06:34.928Z,100319.66
2022-10-19T02:09:05.001Z,100328.34
2022-10-19T02:11:36.060Z,100336.97
2022-10-19T02:14:10.820Z,100332.63
2022-10-19T02:16:47.957Z,100341.03
2022-10-19T02:19:19.502Z,100339.34
2022-10-19T02:21:50.133Z,100343.09
2022-10-19T02:24:20.172Z,100342.72
2022-10-19T02:26:50.364Z,100353.19
2022-10-19T02:29:20.455Z,100336.88
2022-10-19T02:31:53.137Z,100349.22
2022-10-19T02:34:23.293Z,100357.16
2022-10-19T02:36:53.366Z,100364.97
2022-10-19T02:39:24.047Z,100367.47
2022-10-19T02:42:02.848Z,100351.28
2022-10-19T02:44:36.253Z,100337.59
2022-10-19T02:47:13.573Z,100326.63
2022-10-19T02:49:45.760Z,100331.44
2022-10-19T02:52:17.109Z,100332.88
2022-10-19T02:54:50.840Z,100325.91
2022-10-19T02:57:23.324Z,100335.03
2022-10-19T02:59:54.085Z,100340.94
2022-10-19T03:02:27.415Z,100353.63
2022-10-19T03:04:57.376Z,100366.50
2022-10-19T03:07:27.489Z,100371.53
2022-10-19T03:09:57.508Z,100370.47
2022-10-19T03:12:27.600Z,100364.94
2022-10-19T03:14:57.673Z,100379.59
2022-10-19T03:17:30.275Z,100378.94
2022-10-19T03:20:02.336Z,100375.09
2022-10-19T03:22:32.489Z,100382.78
2022-10-19T03:25:02.519Z,100380.75
2022-10-19T03:27:32.724Z,100382.19
2022-10-19T03:30:11.086Z,100371.91
2022-10-19T03:32:43.723Z,100374.06
2022-10-19T03:35:13.904Z,100368.63
2022-10-19T03:37:43.870Z,100370.91
2022-10-19T03:40:15.173Z,100369.56
2022-10-19T03:42:45.272Z,100370.03
2022-10-19T03:45:15.200Z,100374.91
2022-10-19T03:47:52.204Z,100381.78
2022-10-19T03:50:24.675Z,100376.34
2022-10-19T03:52:54.801Z,100372.59
2022-10-19T03:55:25.005Z,100376.09
2022-10-19T03:57:55.228Z,100387.53
2022-10-19T04:00:25.212Z,100378.25
2022-10-19T04:02:57.852Z,100391.09
2022-10-19T04:05:27.767Z,100373.41
2022-10-19T04:07:57.740Z,100374.63
2022-10-19T04:10:28.068Z,100369.59
2022-10-19T04:12:58.080Z,100375.84
2022-10-19T04:15:28.164Z,100375.84
2022-10-19T04:18:00.724Z,100375.00
2022-10-19T04:20:31.790Z,100383.91
2022-10-19T04:23:02.640Z,100384.16
2022-10-19T04:25:32.712Z,100392.25
2022-10-19T04:28:02.734Z,100390.56
2022-10-19T04:30:34.550Z,100388.16
2022-10-19T04:33:07.259Z,100397.91
2022-10-19T04:35:37.346Z,100388.75
2022-10-19T04:38:07.402Z,100383.19
2022-10-19T04:40:38.781Z,100377.78
2022-10-19T04:43:08.780Z,100389.81
2022-10-19T04:45:39.154Z,100387.63
2022-10-19T04:48:14.639Z,100383.03
2022-10-19T04:50:45.283Z,100377.22
2022-10-19T04:53:15.326Z,100375.16
2022-10-19T04:55:45.441Z,100371.41
2022-10-19T04:58:15.454Z,100388.03
2022-10-19T05:00:46.006Z,100372.13
2022-10-19T05:03:19.086Z,100370.31
2022-10-19T05:05:49.120Z,100369.22
2022-10-19T05:08:19.220Z,100359.59
2022-10-19T05:10:49.153Z,100359.59
2022-10-19T05:13:19.189Z,100349.84
2022-10-19T05:15:58.627Z,100355.00
2022-10-19T05:18:31.881Z,100359.34
2022-10-19T05:21:06.857Z,100376.22
2022-10-19T05:23:37.771Z,100384.03
2022-10-19T05:26:10.605Z,100380.28
2022-10-19T05:28:41.036Z,100371.75
2022-10-19T05:31:13.573Z,100382.50
2022-10-19T05:33:47.083Z,100374.56
2022-10-19T05:36:19.670Z,100387.31
2022-10-19T05:38:54.965Z,100396.88
2022-10-19T05:41:25.864Z,100397.16
2022-10-19T05:43:57.235Z,100416.50
2022-10-19T05:46:28.269Z,100414.88
2022-10-19T05:49:02.192Z,100418.53
2022-10-19T05:51:35.268Z,100420.53
2022-10-19T05:54:05.243Z,100419.47
2022-10-19T05:56:35.836Z,100411.16
2022-10-19T05:59:08.341Z,100408.44
2022-10-19T06:01:39.255Z,100400.59
2022-10-19T06:04:14.231Z,100413.22
2022-10-19T06:06:46.009Z,100407.19
2022-10-19T06:09:16.105Z,100411.66
2022-10-19T06:11:46.664Z,100407.03
2022-10-19T06:14:18.485Z,100413.72
2022-10-19T06:16:48.668Z,100434.13
2022-10-19T06:19:21.213Z,100426.97
2022-10-19T06:21:51.228Z,100418.94
2022-10-19T06:24:21.133Z,100415.69
2022-10-19T06:26:51.122Z,100415.13
2022-10-19T06:29:21.149Z,100412.66
2022-10-19T06:31:52.212Z,100425.09
2022-10-19T06:34:25.118Z,100413.09
2022-10-19T06:36:55.178Z,100413.88
2022-10-19T06:39:25.182Z,100417.16
2022-10-19T06:41:55.146Z,100424.28
2022-10-19T06:44:25.301Z,100428.03
2022-10-19T06:46:55.362Z,100433.72
2022-10-19T06:49:28.067Z,100426.50
2022-10-19T06:51:58.048Z,100432.50
2022-10-19T06:54:28.389Z,100426.78
2022-10-19T06:56:58.358Z,100439.47
2022-10-19T06:59:28.725Z,100448.50
2022-10-19T07:01:58.921Z,100447.03
2022-10-19T07:04:32.293Z,100443.63
2022-10-19T07:07:02.300Z,100439.50
2022-10-19T07:09:33.726Z,100438.84
2022-10-19T07:12:03.721Z,100439.03
2022-10-19T07:14:38.797Z,100440.44
2022-10-19T07:17:08.854Z,100452.00
2022-10-19T07:19:41.599Z,100456.72
2022-10-19T07:22:15.541Z,100452.69
2022-10-19T07:24:48.795Z,100457.69
2022-10-19T07:27:18.908Z,100449.25
2022-10-19T07:29:49.344Z,100449.16
2022-10-19T07:32:19.414Z,100448.56
2022-10-19T07:34:52.058Z,100446.59
2022-10-19T07:37:22.022Z,100453.88
2022-10-19T07:39:55.520Z,100447.84
2022-10-19T07:42:25.691Z,100453.72
2022-10-19T07:44:55.665Z,100449.94
2022-10-19T07:47:25.750Z,100459.44
2022-10-19T07:49:58.567Z,100449.44
2022-10-19T07:52:30.776Z,100447.03
2022-10-19T07:55:03.126Z,100448.50
2022-10-19T07:57:33.287Z,100448.63
2022-10-19T08:00:04.146Z,100443.47
2022-10-19T08:02:45.645Z,100435.59
2022-10-19T08:05:26.939Z,100427.13
2022-10-19T08:07:57.191Z,100424.94
2022-10-19T08:10:34.157Z,100429.28
2022-10-19T08:13:04.110Z,100428.50
2022-10-19T08:15:34.065Z,100427.50
2022-10-19T08:18:04.050Z,100431.91
2022-10-19T08:20:37.043Z,100429.91
2022-10-19T08:23:07.097Z,100438.13
2022-10-19T08:25:37.365Z,100438.97
2022-10-19T08:28:07.400Z,100437.28
2022-10-19T08:30:38.028Z,100440.97
2022-10-19T08:33:08.530Z,100447.75
2022-10-19T08:35:41.231Z,100443.19
2022-10-19T08:38:11.550Z,100445.84
2022-10-19T08:40:42.561Z,100449.47
2022-10-19T08:43:21.319Z,100449.72
2022-10-19T08:46:01.350Z,100447.91
2022-10-19T08:48:33.299Z,100451.66
2022-10-19T08:51:09.421Z,100453.66
2022-10-19T08:53:47.288Z,100460.03
2022-10-19T08:56:50.023Z,100455.16
2022-10-19T08:59:24.620Z,100459.69
2022-10-19T09:01:58.211Z,100455.44
2022-10-19T09:04:33.408Z,100450.91
2022-10-19T09:07:25.453Z,100446.03
2022-10-19T09:10:00.056Z,100437.09
2022-10-19T09:12:45.027Z,100431.50
2022-10-19T09:15:17.766Z,100428.81
2022-10-19T09:17:48.043Z,100438.69
2022-10-19T09:20:21.697Z,100438.66
2022-10-19T09:23:00.078Z,100439.63
2022-10-19T09:25:32.570Z,100438.31
2022-10-19T09:28:13.367Z,100440.06
2022-10-19T09:30:45.671Z,100443.72
2022-10-19T09:33:22.077Z,100439.53
2022-10-19T09:35:53.428Z,100446.81
2022-10-19T09:38:29.779Z,100449.69
2022-10-19T09:41:00.695Z,100450.78
2022-10-19T09:43:30.899Z,100447.47
2022-10-19T09:46:18.549Z,100446.06
2022-10-19T09:48:53.610Z,100435.38
2022-10-19T09:51:23.905Z,100441.88
2022-10-19T09:53:59.928Z,100433.00
2022-10-19T09:56:30.959Z,100433.06
2022-10-19T09:59:04.716Z,100424.63
2022-10-19T10:01:41.952Z,100428.41
2022-10-19T10:04:18.173Z,100414.31
2022-10-19T10:06:50.914Z,100413.00
2022-10-19T10:09:28.501Z,100414.47
2022-10-19T10:12:01.466Z,100411.34
2022-10-19T10:14:35.179Z,100411.53
2022-10-19T10:17:05.837Z,100412.06
2022-10-19T10:19:38.238Z,100406.63
2022-10-19T10:22:08.264Z,100399.28
2022-10-19T10:24:54.938Z,100401.41
2022-10-19T10:27:32.542Z,100392.69
2022-10-19T10:30:10.103Z,100393.97
2022-10-19T10:32:44.419Z,100376.44
2022-10-19T10:35:21.545Z,100384.44
2022-10-19T10:37:52.842Z,100382.31
2022-10-19T10:40:32.378Z,100382.59
2022-10-19T10:43:07.653Z,100374.63
2022-10-19T10:45:44.133Z,100380.28
2022-10-19T10:48:25.248Z,100374.22
2022-10-19T10:50:55.615Z,100374.22
2022-10-19T10:53:36.753Z,100371.91
2022-10-19T10:56:24.558Z,100365.44
2022-10-19T10:59:00.494Z,100368.59
2022-10-19T11:01:36.165Z,100367.28
2022-10-19T11:04:11.543Z,100369.97
2022-10-19T11:06:50.380Z,100366.59
2022-10-19T11:09:27.391Z,100356.56
2022-10-19T11:12:02.889Z,100353.34
2022-10-19T11:14:39.748Z,100363.19
2022-10-19T11:17:27.049Z,100365.41
2022-10-19T11:20:01.550Z,100347.78
2022-10-19T11:22:38.543Z,100360.25
2022-10-19T11:25:32.420Z,100359.59
2022-10-19T11:28:19.780Z,100356.25
2022-10-19T11:31:13.646Z,100357.53
2022-10-19T11:33:57.534Z,100345.22
2022-10-19T11:36:48.791Z,100346.66
2022-10-19T11:39:42.228Z,100347.59
2022-10-19T11:42:21.865Z,100346.66
2022-10-19T11:45:05.109Z,100345.31
2022-10-19T11:47:59.731Z,100333.09
2022-10-19T11:50:44.166Z,100328.47
2022-10-19T11:53:27.166Z,100329.69
2022-10-19T11:56:06.954Z,100310.63
2022-10-19T11:58:47.061Z,100306.72
2022-10-19T12:01:31.588Z,100299.94
2022-10-19T12:04:48.286Z,100300.03
2022-10-19T12:07:42.857Z,100286.34
2022-10-19T12:10:26.114Z,100281.53
2022-10-19T12:12:59.764Z,100277.84
2022-10-19T12:15:33.641Z,100276.47
2022-10-19T12:18:14.762Z,100280.00
2022-10-19T12:20:50.457Z,100275.38
2022-10-19T12:23:29.589Z,100271.84
2022-10-19T12:26:02.851Z,100268.72
2022-10-19T12:28:35.388Z,100268.44
2022-10-19T12:31:12.273Z,100266.94
2022-10-19T12:33:52.045Z,100265.94
2022-10-19T12:36:39.661Z,100252.81
2022-10-19T12:39:18.808Z,100252.69
2022-10-19T12:41:56.319Z,100243.75
2022-10-19T12:44:44.009Z,100249.84
2022-10-19T12:47:19.981Z,100243.63
2022-10-19T12:49:55.258Z,100239.25
2022-10-19T12:52:52.379Z,100245.28
2022-10-19T12:55:35.063Z,100232.69
2022-10-19T12:58:08.041Z,100230.56
2022-10-19T13:00:40.608Z,100224.84
2022-10-19T13:03:18.507Z,100218.94
2022-10-19T13:05:59.450Z,100216.53
2022-10-19T13:08:33.412Z,100201.28
2022-10-19T13:11:09.605Z,100195.50
2022-10-19T13:14:02.300Z,100201.91
2022-10-19T13:16:43.756Z,100213.09
2022-10-19T13:19:24.298Z,100224.13
2022-10-19T13:22:27.293Z,100215.66
2022-10-19T13:25:23.733Z,100210.69
2022-10-19T13:27:54.757Z,100209.47
2022-10-19T13:31:03.270Z,100208.09
2022-10-19T13:33:47.103Z,100204.50
2022-10-19T13:36:17.642Z,100206.25
2022-10-19T13:38:49.501Z,100196.50
2022-10-19T13:41:25.940Z,100203.91
2022-10-19T13:44:06.875Z,100203.44
2022-10-19T13:47:06.755Z,100201.31
2022-10-19T13:49:52.052Z,100200.94
2022-10-19T13:52:51.209Z,100194.09
2022-10-19T13:55:48.978Z,100194.00
2022-10-19T13:58:51.692Z,100198.44
2022-10-19T14:01:36.173Z,100196.25
2022-10-19T14:04:29.547Z,100196.19
2022-10-19T14:07:08.298Z,100190.53
2022-10-19T14:09:58.178Z,100192.72
2022-10-19T14:12:30.600Z,100193.41
2022-10-19T14:15:00.638Z,100180.00
2022-10-19T14:17:35.464Z,100187.31
2022-10-19T14:20:25.772Z,100173.44
2022-10-19T14:22:58.907Z,100188.97
2022-10-19T14:25:31.974Z,100185.91
2022-10-19T14:28:05.074Z,100183.97
2022-10-19T14:30:38.445Z,100184.44
2022-10-19T14:33:11.965Z,100198.13
2022-10-19T14:35:45.091Z,100188.84
2022-10-19T14:38:23.225Z,100195.03
2022-10-19T14:40:53.312Z,100185.91
2022-10-19T14:43:26.025Z,100189.91
2022-10-19T14:46:14.690Z,100192.34
2022-10-19T14:48:48.677Z,100192.22
2022-10-19T14:51:21.882Z,100193.06
2022-10-19T14:53:58.009Z,100195.81
2022-10-19T14:56:32.082Z,100199.34
2022-10-19T14:59:05.200Z,100209.28
2022-10-19T15:01:35.659Z,100197.72
2022-10-19T15:04:06.581Z,100199.13
2022-10-19T15:06:42.543Z,100204.84
2022-10-19T15:09:37.680Z,100202.53
2022-10-19T15:12:19.602Z,100197.56
2022-10-19T15:14:50.950Z,100194.19
2022-10-19T15:17:27.640Z,100203.56
2022-10-19T15:20:01.385Z,100198.88
2022-10-19T15:22:43.265Z,100205.38
2022-10-19T15:25:29.590Z,100202.34
2022-10-19T15:27:59.671Z,100191.97
2022-10-19T15:30:34.370Z,100204.53
2022-10-19T15:33:18.126Z,100202.47
2022-10-19T15:35:49.503Z,100208.66
2022-10-19T15:38:25.990Z,100208.03
2022-10-19T15:41:03.650Z,100215.66
2022-10-19T15:43:48.840Z,100218.84
2022-10-19T15:46:28.511Z,100219.75
2022-10-19T15:49:04.532Z,100222.84
2022-10-19T15:51:46.408Z,100227.81
2022-10-19T15:54:19.183Z,100227.97
2022-10-19T15:56:56.552Z,100230.88
2022-10-19T15:59:26.693Z,100245.41
2022-10-19T16:01:56.742Z,100244.59
2022-10-19T16:04:26.917Z,100243.41
2022-10-19T16:06:57.211Z,100246.06
2022-10-19T16:09:27.377Z,100248.69
2022-10-19T16:12:00.158Z,100259.63
2022-10-19T16:14:33.040Z,100253.47
2022-10-19T16:17:05.993Z,100256.13
2022-10-19T16:19:37.635Z,100257.72
2022-10-19T16:22:07.993Z,100262.34
2022-10-19T16:24:38.454Z,100266.63
2022-10-19T16:27:15.214Z,100281.06
2022-10-19T16:29:46.097Z,100293.69
2022-10-19T16:32:16.959Z,100312.50
2022-10-19T16:34:47.478Z,100315.94
2022-10-19T16:37:18.082Z,100315.13
2022-10-19T16:39:49.852Z,100322.97
2022-10-19T16:42:24.625Z,100320.66
2022-10-19T16:44:57.078Z,100334.00
2022-10-19T16:47:27.350Z,100338.56
2022-10-19T16:50:03.257Z,100347.16
2022-10-19T16:52:34.623Z,100353.69
2022-10-19T16:55:06.619Z,100368.94
2022-10-19T16:57:40.151Z,100367.25
2022-10-19T17:00:11.504Z,100359.25
2022-10-19T17:02:45.746Z,100358.25
2022-10-19T17:05:16.947Z,100363.88
2022-10-19T17:07:47.346Z,100372.16
2022-10-19T17:10:20.599Z,100376.53
2022-10-19T17:12:53.487Z,100373.31
2022-10-19T17:15:42.147Z,100381.06
2022-10-19T17:18:13.220Z,100390.56
2022-10-19T17:20:43.571Z,100388.03
2022-10-19T17:23:17.086Z,100391.97
2022-10-19T17:25:51.185Z,100393.06
2022-10-19T17:28:27.843Z,100400.34
2022-10-19T17:30:58.922Z,100422.13
2022-10-19T17:33:30.155Z,100432.72
2022-10-19T17:36:07.138Z,100425.47
2022-10-19T17:38:37.855Z,100421.97
2022-10-19T17:41:10.377Z,100427.41
2022-10-19T17:43:46.077Z,100438.63
2022-10-19T17:46:23.043Z,100432.47
2022-10-19T17:48:53.475Z,100444.50
2022-10-19T17:51:27.215Z,100450.25
2022-10-19T17:54:01.786Z,100447.03
2022-10-19T17:56:33.082Z,100451.38
2022-10-19T17:59:09.008Z,100453.47
2022-10-19T18:01:40.037Z,100458.88
2022-10-19T18:04:10.269Z,100459.88
2022-10-19T18:06:41.468Z,100455.38
2022-10-19T18:09:13.770Z,100458.22
2022-10-19T18:11:46.027Z,100459.44
2022-10-19T18:14:19.363Z,100469.47
2022-10-19T18:16:50.448Z,100470.47
2022-10-19T18:19:21.353Z,100462.50
2022-10-19T18:21:53.554Z,100466.81
2022-10-19T18:24:24.035Z,100466.84
2022-10-19T18:26:55.447Z,100470.91
2022-10-19T18:29:29.252Z,100482.50
2022-10-19T18:32:01.698Z,100492.41
2022-10-19T18:34:32.936Z,100498.97
2022-10-19T18:37:03.307Z,100498.13
2022-10-19T18:39:33.938Z,100482.16
2022-10-19T18:42:05.170Z,100480.22
2022-10-19T18:44:38.126Z,100492.88
2022-10-19T18:47:09.174Z,100501.78
2022-10-19T18:49:40.074Z,100507.56
2022-10-19T18:52:10.585Z,100501.78
2022-10-19T18:54:41.306Z,100498.25
2022-10-19T18:57:14.681Z,100498.22
2022-10-19T18:59:53.198Z,100491.31
2022-10-19T19:02:34.635Z,100492.91
2022-10-19T19:05:09.262Z,100491.47
2022-10-19T19:07:40.108Z,100493.31
2022-10-19T19:10:10.980Z,100496.19
2022-10-19T19:12:41.812Z,100495.38
2022-10-19T19:15:15.381Z,100497.84
2022-10-19T19:17:46.415Z,100506.28
2022-10-19T19:20:19.915Z,100509.19
2022-10-19T19:22:52.579Z,100504.47
2022-10-19T19:25:23.101Z,100523.03
2022-10-19T19:27:53.414Z,100519.66
2022-10-19T19:30:27.989Z,100518.81
2022-10-19T19:32:58.564Z,100518.00
2022-10-19T19:35:28.913Z,100511.59
2022-10-19T19:37:59.173Z,100512.09
2022-10-19T19:40:30.226Z,100516.44
2022-10-19T19:43:01.507Z,100526.31
2022-10-19T19:45:34.536Z,100531.72
2022-10-19T19:48:07.693Z,100527.28
2022-10-19T19:50:40.391Z,100522.09
2022-10-19T19:53:10.817Z,100528.13
2022-10-19T19:55:41.524Z,100537.88
2022-10-19T19:58:12.818Z,100529.91
2022-10-19T20:00:46.239Z,100536.91
2022-10-19T20:03:16.525Z,100541.84
2022-10-19T20:05:47.490Z,100537.41
2022-10-19T20:08:21.040Z,100539.47
2022-10-19T20:10:54.549Z,100551.50
2022-10-19T20:13:25.232Z,100560.09
2022-10-19T20:16:02.634Z,100554.06
2022-10-19T20:18:33.417Z,100553.59
2022-10-19T20:21:04.275Z,100557.31
2022-10-19T20:23:35.396Z,100559.72
2022-10-19T20:26:09.152Z,100546.75
2022-10-19T20:28:39.412Z,100554.44
2022-10-19T20:31:13.768Z,100564.06
2022-10-19T20:33:47.403Z,100561.56
2022-10-19T20:36:20.052Z,100563.47
2022-10-19T20:38:55.694Z,100572.38
2022-10-19T20:41:27.620Z,100575.03
2022-10-19T20:44:00.130Z,100578.50
2022-10-19T20:46:33.473Z,100571.28
2022-10-19T20:49:04.880Z,100574.28
2022-10-19T20:51:36.933Z,100576.34
2022-10-19T20:54:09.714Z,100570.66
2022-10-19T20:56:41.801Z,100587.41
2022-10-19T20:59:16.813Z,100578.50
2022-10-19T21:01:54.384Z,100576.47
2022-10-19T21:04:25.010Z,100581.88
2022-10-19T21:06:55.877Z,100575.84
2022-10-19T21:09:26.732Z,100572.84
2022-10-19T21:11:56.743Z,100588.25
2022-10-19T21:14:29.110Z,100587.63
2022-10-19T21:17:02.792Z,100603.03
2022-10-19T21:19:34.442Z,100591.97
2022-10-19T21:22:06.356Z,100597.63
2022-10-19T21:24:39.588Z,100596.53
2022-10-19T21:27:11.880Z,100604.06
2022-10-19T21:29:44.358Z,100611.53
2022-10-19T21:32:18.432Z,100607.44
2022-10-19T21:34:48.471Z,100604.28
2022-10-19T21:37:18.446Z,100599.22
2022-10-19T21:39:53.341Z,100595.25
2022-10-19T21:42:23.317Z,100604.97
2022-10-19T21:44:57.221Z,100605.09
2022-10-19T21:47:34.271Z,100610.38
2022-10-19T21:50:05.727Z,100605.31
2022-10-19T21:52:35.846Z,100621.56
2022-10-19T21:55:06.025Z,100612.28
2022-10-19T21:57:36.367Z,100605.59
2022-10-19T22:00:10.703Z,100613.88
2022-10-19T22:02:43.339Z,100619.75
2022-10-19T22:05:13.355Z,100620.09
2022-10-19T22:07:43.398Z,100618.72
2022-10-19T22:10:14.225Z,100628.03
2022-10-19T22:12:44.197Z,100630.22
2022-10-19T22:15:14.652Z,100634.25
2022-10-19T22:17:47.262Z,100641.44
2022-10-19T22:20:18.314Z,100643.22
2022-10-19T22:22:50.316Z,100652.00
2022-10-19T22:25:22.844Z,100635.00
2022-10-19T22:27:52.935Z,100645.25
2022-10-19T22:30:24.299Z,100650.53
2022-10-19T22:32:56.964Z,100649.47
2022-10-19T22:35:26.970Z,100646.72
2022-10-19T22:37:57.097Z,100655.47
2022-10-19T22:40:27.093Z,100651.88
2022-10-19T22:43:04.915Z,100655.38
2022-10-19T22:45:36.913Z,100644.81
2022-10-19T22:48:09.910Z,100647.44
2022-10-19T22:50:40.139Z,100651.03
2022-10-19T22:53:10.242Z,100652.84
2022-10-19T22:55:40.808Z,100651.47
2022-10-19T23:01:04.219Z,100654.53
2022-10-19T23:03:39.398Z,100654.28
2022-10-19T23:06:10.259Z,100662.50
2022-10-19T23:08:43.139Z,100663.88
2022-10-19T23:11:13.670Z,100655.91
2022-10-19T23:13:43.877Z,100666.03
2022-10-19T23:16:15.065Z,100653.78
2022-10-19T23:18:47.827Z,100660.84
2022-10-19T23:21:18.439Z,100670.81
2022-10-19T23:23:48.586Z,100675.56
2022-10-19T23:26:20.794Z,100674.06
2022-10-19T23:28:52.743Z,100678.16
2022-10-19T23:31:26.191Z,100677.88
2022-10-19T23:33:59.285Z,100688.06
2022-10-19T23:36:31.162Z,100681.41
2022-10-19T23:39:01.482Z,100688.13
2022-10-19T23:41:31.519Z,100695.69
2022-10-19T23:44:01.519Z,100694.50
2022-10-19T23:46:31.491Z,100702.91
2022-10-19T23:49:04.141Z,100697.22
2022-10-19T23:51:34.123Z,100702.13
2022-10-19T23:54:04.258Z,100706.41
2022-10-19T23:56:34.258Z,100701.72
2022-10-19T23:59:07.367Z,100697.78
